createdAt,value
2022-07-26T00:00:12.400Z,2.35
2022-07-26T00:02:39.490Z,2.58
2022-07-26T00:05:14.535Z,2.35
2022-07-26T00:07:41.124Z,2.10
2022-07-26T00:10:08.420Z,2.20
2022-07-26T00:12:35.103Z,2.38
2022-07-26T00:15:02.386Z,2.50
2022-07-26T00:17:28.974Z,2.30
2022-07-26T00:19:55.540Z,1.85
2022-07-26T00:22:34.193Z,2.50
2022-07-26T00:25:05.604Z,2.50
2022-07-26T00:27:32.721Z,2.33
2022-07-26T00:29:59.256Z,2.30
2022-07-26T00:32:25.982Z,2.35
2022-07-26T00:34:52.544Z,2.22
2022-07-26T00:37:20.920Z,1.75
2022-07-26T00:39:48.386Z,2.10
2022-07-26T00:42:15.333Z,2.30
2022-07-26T00:44:44.281Z,2.45
2022-07-26T00:47:12.445Z,2.10
2022-07-26T00:49:39.004Z,2.38
2022-07-26T00:52:06.700Z,1.90
2022-07-26T00:54:33.647Z,1.83
2022-07-26T00:57:00.309Z,2.20
2022-07-26T00:59:27.119Z,1.92
2022-07-26T01:01:54.485Z,2.03
2022-07-26T01:04:21.294Z,1.80
2022-07-26T01:06:49.174Z,2.20
2022-07-26T01:09:17.806Z,1.90
2022-07-26T01:11:45.681Z,2.20
2022-07-26T01:14:12.357Z,2.13
2022-07-26T01:16:39.113Z,1.98
2022-07-26T01:19:05.759Z,2.05
2022-07-26T01:21:33.939Z,2.05
2022-07-26T01:24:02.435Z,2.17
2022-07-26T01:26:29.142Z,2.03
2022-07-26T01:28:55.843Z,2.15
2022-07-26T01:31:22.866Z,1.90
2022-07-26T01:33:50.094Z,1.73
2022-07-26T01:36:17.092Z,1.90
2022-07-26T01:38:44.197Z,1.80
2022-07-26T01:41:11.286Z,1.60
2022-07-26T01:43:38.464Z,1.90
2022-07-26T01:46:08.243Z,1.70
2022-07-26T01:48:35.641Z,1.55
2022-07-26T01:51:02.653Z,1.70
2022-07-26T01:53:29.322Z,1.80
2022-07-26T01:55:55.962Z,1.92
2022-07-26T01:58:22.811Z,1.80
2022-07-26T02:00:49.608Z,1.83
2022-07-26T02:03:16.227Z,1.85
2022-07-26T02:05:42.885Z,2.03
2022-07-26T02:08:10.555Z,1.73
2022-07-26T02:10:56.330Z,1.98
2022-07-26T02:13:23.506Z,1.70
2022-07-26T02:15:50.226Z,1.75
2022-07-26T02:18:16.863Z,1.90
2022-07-26T02:20:43.453Z,1.88
2022-07-26T02:23:10.136Z,1.50
2022-07-26T02:25:36.835Z,1.25
2022-07-26T02:28:03.516Z,1.70
2022-07-26T02:30:30.313Z,1.50
2022-07-26T02:32:56.863Z,1.70
2022-07-26T02:35:23.468Z,1.80
2022-07-26T02:37:50.058Z,1.60
2022-07-26T02:40:19.353Z,1.63
2022-07-26T02:42:46.475Z,1.58
2022-07-26T02:45:13.075Z,1.85
2022-07-26T02:47:50.555Z,1.33
2022-07-26T02:50:18.842Z,1.98
2022-07-26T02:52:49.023Z,1.58
2022-07-26T02:55:17.490Z,1.73
2022-07-26T02:57:46.370Z,1.48
2022-07-26T03:00:15.746Z,1.30
2022-07-26T03:02:42.398Z,1.60
2022-07-26T03:05:09.933Z,1.33
2022-07-26T03:07:36.612Z,1.38
2022-07-26T03:10:04.753Z,1.65
2022-07-26T03:12:31.586Z,1.42
2022-07-26T03:14:58.293Z,1.30
2022-07-26T03:17:24.982Z,1.70
2022-07-26T03:19:51.635Z,1.20
2022-07-26T03:22:18.362Z,1.65
2022-07-26T03:24:44.951Z,1.30
2022-07-26T03:27:11.607Z,1.45
2022-07-26T03:29:38.243Z,1.70
2022-07-26T03:32:04.972Z,1.33
2022-07-26T03:34:31.604Z,1.30
2022-07-26T03:36:58.259Z,1.38
2022-07-26T03:39:25.558Z,1.42
2022-07-26T03:41:52.165Z,1.67
2022-07-26T03:44:20.106Z,1.52
2022-07-26T03:46:46.743Z,1.50
2022-07-26T03:49:16.975Z,1.50
2022-07-26T03:51:43.888Z,1.50
2022-07-26T03:54:11.093Z,1.40
2022-07-26T03:56:38.015Z,1.45
2022-07-26T03:59:07.137Z,1.90
2022-07-26T04:01:35.173Z,1.38
2022-07-26T04:04:02.063Z,1.30
2022-07-26T04:06:30.131Z,1.27
2022-07-26T04:08:56.954Z,1.48
2022-07-26T04:11:26.458Z,1.02
2022-07-26T04:13:55.470Z,1.40
2022-07-26T04:16:22.515Z,1.45
2022-07-26T04:18:49.241Z,1.45
2022-07-26T04:21:16.175Z,1.23
2022-07-26T04:23:44.507Z,1.10
2022-07-26T04:26:14.521Z,1.30
2022-07-26T04:28:42.332Z,1.60
2022-07-26T04:31:09.795Z,1.30
2022-07-26T04:33:36.519Z,1.67
2022-07-26T04:36:03.676Z,1.50
2022-07-26T04:38:30.495Z,1.60
2022-07-26T04:40:58.120Z,1.40
2022-07-26T04:43:25.201Z,1.42
2022-07-26T04:45:51.831Z,1.40
2022-07-26T04:48:18.435Z,1.80
2022-07-26T04:50:45.066Z,1.55
2022-07-26T04:53:11.741Z,1.60
2022-07-26T04:55:39.371Z,1.73
2022-07-26T04:58:06.345Z,1.38
2022-07-26T05:00:35.074Z,1.88
2022-07-26T05:05:40.278Z,1.50
2022-07-26T05:08:07.142Z,1.65
2022-07-26T05:10:36.011Z,1.52
2022-07-26T05:13:04.603Z,1.75
2022-07-26T05:15:35.150Z,1.67
2022-07-26T05:18:10.879Z,1.70
2022-07-26T05:20:40.646Z,1.58
2022-07-26T05:23:07.973Z,1.80
2022-07-26T05:25:35.150Z,1.33
2022-07-26T05:28:01.852Z,1.58
2022-07-26T05:30:28.678Z,2.15
2022-07-26T05:32:55.336Z,1.40
2022-07-26T05:35:21.986Z,1.65
2022-07-26T05:37:48.661Z,1.42
2022-07-26T05:40:15.307Z,1.60
2022-07-26T05:42:41.933Z,1.50
2022-07-26T05:45:09.073Z,1.50
2022-07-26T05:47:35.740Z,1.60
2022-07-26T05:50:02.709Z,1.73
2022-07-26T05:52:29.492Z,1.30
2022-07-26T05:54:56.096Z,1.40
2022-07-26T05:57:22.667Z,2.28
2022-07-26T05:59:49.287Z,2.03
2022-07-26T06:02:16.012Z,1.60
2022-07-26T06:04:42.734Z,1.38
2022-07-26T06:07:09.412Z,1.90
2022-07-26T06:09:36.114Z,1.40
2022-07-26T06:12:02.704Z,1.40
2022-07-26T06:14:29.240Z,1.50
2022-07-26T06:16:56.627Z,1.30
2022-07-26T06:19:23.327Z,2.03
2022-07-26T06:21:49.935Z,1.35
2022-07-26T06:24:16.681Z,1.23
2022-07-26T06:26:43.364Z,1.25
2022-07-26T06:29:10.177Z,1.17
2022-07-26T06:31:37.538Z,1.40
2022-07-26T06:34:04.342Z,1.30
2022-07-26T06:36:31.398Z,1.17
2022-07-26T06:38:58.528Z,1.90
2022-07-26T06:41:25.640Z,1.15
2022-07-26T06:43:52.208Z,1.27
2022-07-26T06:46:20.843Z,1.27
2022-07-26T06:48:52.786Z,1.30
2022-07-26T06:51:19.813Z,1.58
2022-07-26T06:53:46.467Z,1.20
2022-07-26T06:56:15.022Z,1.20
2022-07-26T06:58:42.651Z,1.10
2022-07-26T07:01:09.353Z,1.67
2022-07-26T07:03:36.234Z,1.13
2022-07-26T07:06:03.061Z,1.60
2022-07-26T07:08:29.837Z,1.45
2022-07-26T07:10:56.768Z,1.48
2022-07-26T07:13:23.772Z,1.35
2022-07-26T07:15:50.420Z,1.80
2022-07-26T07:18:17.239Z,1.15
2022-07-26T07:20:43.815Z,1.50
2022-07-26T07:23:10.372Z,1.20
2022-07-26T07:25:36.968Z,1.20
2022-07-26T07:28:04.148Z,1.40
2022-07-26T07:30:31.460Z,1.10
2022-07-26T07:32:58.362Z,1.30
2022-07-26T07:35:31.551Z,1.60
2022-07-26T07:37:58.995Z,1.27
2022-07-26T07:40:26.061Z,1.23
2022-07-26T07:42:52.739Z,1.08
2022-07-26T07:45:19.386Z,1.20
2022-07-26T07:47:45.954Z,1.20
2022-07-26T07:50:12.551Z,1.35
2022-07-26T07:52:39.300Z,1.30
2022-07-26T07:55:36.106Z,1.27
2022-07-26T07:57:54.488Z,1.20
2022-07-26T08:00:27.295Z,1.60
2022-07-26T08:02:55.147Z,1.30
2022-07-26T08:05:21.834Z,1.42
2022-07-26T08:07:49.636Z,1.40
2022-07-26T08:10:19.852Z,1.52
2022-07-26T08:12:46.452Z,1.90
2022-07-26T08:15:19.395Z,1.23
2022-07-26T08:17:51.057Z,1.13
2022-07-26T08:20:20.690Z,1.23
2022-07-26T08:22:50.538Z,1.17
2022-07-26T08:25:17.135Z,1.30
2022-07-26T08:27:55.035Z,1.40
2022-07-26T08:30:29.375Z,1.55
2022-07-26T08:32:56.037Z,1.00
2022-07-26T08:35:22.586Z,1.10
2022-07-26T08:37:50.098Z,1.27
2022-07-26T08:40:16.832Z,1.13
2022-07-26T08:42:52.662Z,0.90
2022-07-26T08:45:27.971Z,1.08
2022-07-26T08:48:16.879Z,1.10
2022-07-26T08:50:42.268Z,4.32
2022-07-26T08:53:10.202Z,1.20
2022-07-26T08:56:04.236Z,1.00
2022-07-26T08:58:23.762Z,0.95
2022-07-26T09:01:13.200Z,1.10
2022-07-26T09:03:43.977Z,1.10
2022-07-26T09:06:22.027Z,1.20
2022-07-26T09:08:53.272Z,1.00
2022-07-26T09:11:32.140Z,1.05
2022-07-26T09:14:02.116Z,1.13
2022-07-26T09:16:29.827Z,0.90
2022-07-26T09:19:16.384Z,1.17
2022-07-26T09:21:43.393Z,1.10
2022-07-26T09:24:10.665Z,1.00
2022-07-26T09:26:37.555Z,0.88
2022-07-26T09:29:10.396Z,0.85
2022-07-26T09:31:39.355Z,1.10
2022-07-26T09:34:07.419Z,1.00
2022-07-26T09:36:50.970Z,0.70
2022-07-26T09:39:17.805Z,0.70
2022-07-26T09:42:25.040Z,0.68
2022-07-26T09:44:48.129Z,0.80
2022-07-26T09:47:14.797Z,0.73
2022-07-26T09:49:42.394Z,0.80
2022-07-26T09:52:20.532Z,0.77
2022-07-26T09:54:49.577Z,0.90
2022-07-26T09:57:18.349Z,1.90
2022-07-26T09:59:45.771Z,0.80
2022-07-26T10:02:14.141Z,0.90
2022-07-26T10:04:42.147Z,0.77
2022-07-26T10:07:10.022Z,0.73
2022-07-26T10:09:49.063Z,0.88
2022-07-26T10:12:17.184Z,0.80
2022-07-26T10:14:47.968Z,1.10
2022-07-26T10:17:31.752Z,0.75
2022-07-26T10:20:10.537Z,0.80
2022-07-26T10:22:48.310Z,0.80
2022-07-26T10:25:17.713Z,1.05
2022-07-26T10:27:53.195Z,1.00
2022-07-26T10:30:19.791Z,0.90
2022-07-26T10:33:00.258Z,0.60
2022-07-26T10:35:32.096Z,0.80
2022-07-26T10:38:03.706Z,1.00
2022-07-26T10:40:30.487Z,0.80
2022-07-26T10:43:39.639Z,0.98
2022-07-26T10:46:16.875Z,1.08
2022-07-26T10:49:07.367Z,1.02
2022-07-26T10:54:03.863Z,1.00
2022-07-26T10:56:33.374Z,0.90
2022-07-26T10:59:01.334Z,0.93
2022-07-26T11:01:36.205Z,0.73
2022-07-26T11:04:03.315Z,0.70
2022-07-26T11:06:30.465Z,0.73
2022-07-26T11:08:57.297Z,0.95
2022-07-26T11:11:33.451Z,1.00
2022-07-26T11:14:15.476Z,0.88
2022-07-26T11:16:45.334Z,0.80
2022-07-26T11:19:19.513Z,0.70
2022-07-26T11:21:53.007Z,0.90
2022-07-26T11:24:19.812Z,0.90
2022-07-26T11:26:47.413Z,1.10
2022-07-26T11:29:17.596Z,0.77
2022-07-26T11:31:58.142Z,0.95
2022-07-26T11:34:33.176Z,1.02
2022-07-26T11:37:02.316Z,0.90
2022-07-26T11:39:31.241Z,0.77
2022-07-26T11:42:00.346Z,0.70
2022-07-26T11:44:28.427Z,1.00
2022-07-26T11:46:57.721Z,1.00
2022-07-26T11:52:20.765Z,1.05
2022-07-26T11:54:54.627Z,1.10
2022-07-26T11:57:21.625Z,1.48
2022-07-26T11:59:50.513Z,1.48
2022-07-26T12:02:17.475Z,0.90
2022-07-26T12:04:44.843Z,1.40
2022-07-26T12:07:21.386Z,1.02
2022-07-26T12:09:50.445Z,1.30
2022-07-26T12:12:21.176Z,1.20
2022-07-26T12:15:00.241Z,0.95
2022-07-26T12:17:35.194Z,0.90
2022-07-26T12:20:17.560Z,1.00
2022-07-26T12:22:56.044Z,1.20
2022-07-26T12:25:27.196Z,1.10
2022-07-26T12:27:53.982Z,1.15
2022-07-26T12:30:20.859Z,1.33
2022-07-26T12:32:55.415Z,0.98
2022-07-26T12:35:33.681Z,0.93
2022-07-26T12:38:00.708Z,1.05
2022-07-26T12:40:39.505Z,1.25
2022-07-26T12:43:06.406Z,1.00
2022-07-26T12:45:35.108Z,1.17
2022-07-26T12:48:06.990Z,0.88
2022-07-26T12:50:33.596Z,1.00
2022-07-26T12:53:01.559Z,1.25
2022-07-26T12:55:28.214Z,1.10
2022-07-26T12:57:57.030Z,1.23
2022-07-26T13:00:24.594Z,1.10
2022-07-26T13:02:52.924Z,1.10
2022-07-26T13:05:19.539Z,1.08
2022-07-26T13:07:46.377Z,1.30
2022-07-26T13:12:59.741Z,1.40
2022-07-26T13:15:36.283Z,1.10
2022-07-26T13:18:05.134Z,1.35
2022-07-26T13:20:31.685Z,1.10
2022-07-26T13:22:58.356Z,1.30
2022-07-26T13:25:25.557Z,1.33
2022-07-26T13:27:56.077Z,1.25
2022-07-26T13:30:22.757Z,1.48
2022-07-26T13:32:49.420Z,1.10
2022-07-26T13:35:16.010Z,1.13
2022-07-26T13:37:42.595Z,1.08
2022-07-26T13:40:09.836Z,1.13
2022-07-26T13:42:38.161Z,1.17
2022-07-26T13:45:07.028Z,1.00
2022-07-26T13:47:33.584Z,1.15
2022-07-26T13:50:00.267Z,1.50
2022-07-26T13:52:26.981Z,1.27
2022-07-26T13:54:53.575Z,1.25
2022-07-26T13:57:20.105Z,1.35
2022-07-26T13:59:46.778Z,1.10
2022-07-26T14:02:13.634Z,1.00
2022-07-26T14:04:40.432Z,1.15
2022-07-26T14:07:07.081Z,1.30
2022-07-26T14:09:33.863Z,1.10
2022-07-26T14:12:00.496Z,1.10
2022-07-26T14:14:27.088Z,1.48
2022-07-26T14:16:53.824Z,1.30
2022-07-26T14:19:20.458Z,1.30
2022-07-26T14:21:58.812Z,1.40
2022-07-26T14:24:26.419Z,1.20
2022-07-26T14:26:56.906Z,1.42
2022-07-26T14:29:26.391Z,1.20
2022-07-26T14:31:53.351Z,1.23
2022-07-26T14:34:20.107Z,1.40
2022-07-26T14:36:46.742Z,1.48
2022-07-26T14:39:13.312Z,1.55
2022-07-26T14:41:39.987Z,1.70
2022-07-26T14:44:06.868Z,1.40
2022-07-26T14:46:33.645Z,1.42
2022-07-26T14:49:00.394Z,1.50
2022-07-26T14:51:27.245Z,1.60
2022-07-26T14:53:53.841Z,1.52
2022-07-26T14:56:20.537Z,1.60
2022-07-26T14:58:47.193Z,1.42
2022-07-26T15:01:13.858Z,1.50
2022-07-26T15:03:40.521Z,1.80
2022-07-26T15:06:07.101Z,1.90
2022-07-26T15:08:33.793Z,1.55
2022-07-26T15:11:00.499Z,1.52
2022-07-26T15:13:27.334Z,1.42
2022-07-26T15:15:54.107Z,1.85
2022-07-26T15:18:20.646Z,1.40
2022-07-26T15:20:47.327Z,1.90
2022-07-26T15:23:15.244Z,1.77
2022-07-26T15:25:42.300Z,1.70
2022-07-26T15:28:09.054Z,1.70
2022-07-26T15:30:35.907Z,1.67
2022-07-26T15:33:02.471Z,1.60
2022-07-26T15:35:30.041Z,1.83
2022-07-26T15:37:57.575Z,1.80
2022-07-26T15:40:24.817Z,1.80
2022-07-26T15:42:53.039Z,1.80
2022-07-26T15:45:21.020Z,2.28
2022-07-26T15:47:55.972Z,1.60
2022-07-26T15:50:25.072Z,1.75
2022-07-26T15:52:51.604Z,1.80
2022-07-26T15:55:19.774Z,1.90
2022-07-26T15:57:46.579Z,1.67
2022-07-26T16:00:14.127Z,1.60
2022-07-26T16:02:41.277Z,1.58
2022-07-26T16:05:09.114Z,1.65
2022-07-26T16:07:35.752Z,1.90
2022-07-26T16:10:02.393Z,1.75
2022-07-26T16:12:29.609Z,1.50
2022-07-26T16:14:56.435Z,1.58
2022-07-26T16:17:23.111Z,1.70
2022-07-26T16:19:49.771Z,2.10
2022-07-26T16:22:16.902Z,1.92
2022-07-26T16:24:43.668Z,1.63
2022-07-26T16:27:10.390Z,1.90
2022-07-26T16:29:36.995Z,1.92
2022-07-26T16:32:03.656Z,1.90
2022-07-26T16:34:30.484Z,1.80
2022-07-26T16:36:57.120Z,1.63
2022-07-26T16:39:23.671Z,1.92
2022-07-26T16:41:50.268Z,1.90
2022-07-26T16:44:16.841Z,1.70
2022-07-26T16:46:44.306Z,1.90
2022-07-26T16:49:11.758Z,2.22
2022-07-26T16:51:38.726Z,1.63
2022-07-26T16:54:05.439Z,2.08
2022-07-26T16:56:32.089Z,1.90
2022-07-26T16:58:58.799Z,1.85
2022-07-26T17:01:25.523Z,1.52
2022-07-26T17:03:52.156Z,1.73
2022-07-26T17:06:18.747Z,1.80
2022-07-26T17:08:45.340Z,1.90
2022-07-26T17:11:11.891Z,2.28
2022-07-26T17:13:38.499Z,2.13
2022-07-26T17:16:05.471Z,2.72
2022-07-26T17:18:32.129Z,2.45
2022-07-26T17:20:59.317Z,2.30
2022-07-26T17:23:25.967Z,2.50
2022-07-26T17:25:52.810Z,2.58
2022-07-26T17:28:19.330Z,2.63
2022-07-26T17:30:46.245Z,3.20
2022-07-26T17:33:13.033Z,3.35
2022-07-26T17:35:39.638Z,2.60
2022-07-26T17:38:06.250Z,2.65
2022-07-26T17:40:34.323Z,2.75
2022-07-26T17:43:01.097Z,2.70
2022-07-26T17:45:27.771Z,2.38
2022-07-26T17:47:54.446Z,4.38
2022-07-26T17:50:38.014Z,3.13
2022-07-26T17:53:05.692Z,3.00
2022-07-26T17:55:32.450Z,2.60
2022-07-26T17:57:59.164Z,2.75
2022-07-26T18:00:29.161Z,3.22
2022-07-26T18:02:57.078Z,4.80
2022-07-26T18:05:30.131Z,2.30
2022-07-26T18:08:00.267Z,2.20
2022-07-26T18:10:27.716Z,2.30
2022-07-26T18:12:55.216Z,2.42
2022-07-26T18:15:21.995Z,2.63
2022-07-26T18:17:48.538Z,2.25
2022-07-26T18:20:15.224Z,2.25
2022-07-26T18:22:41.844Z,2.00
2022-07-26T18:25:12.779Z,1.73
2022-07-26T18:27:39.434Z,2.33
2022-07-26T18:30:06.689Z,2.47
2022-07-26T18:32:34.365Z,2.08
2022-07-26T18:35:01.122Z,2.30
2022-07-26T18:37:27.847Z,1.85
2022-07-26T18:39:57.851Z,1.98
2022-07-26T18:44:51.395Z,1.70
2022-07-26T18:47:18.104Z,1.80
2022-07-26T18:49:44.719Z,2.25
2022-07-26T18:52:11.637Z,2.33
2022-07-26T18:54:38.152Z,2.28
2022-07-26T18:57:05.033Z,2.00
2022-07-26T18:59:32.117Z,1.70
2022-07-26T19:01:59.981Z,1.60
2022-07-26T19:04:27.770Z,2.10
2022-07-26T19:06:54.540Z,1.88
2022-07-26T19:09:21.418Z,1.85
2022-07-26T19:11:48.243Z,2.00
2022-07-26T19:14:14.968Z,1.70
2022-07-26T19:16:41.634Z,2.08
2022-07-26T19:19:08.246Z,2.30
2022-07-26T19:21:35.137Z,2.03
2022-07-26T19:24:01.936Z,2.03
2022-07-26T19:26:31.074Z,1.70
2022-07-26T19:28:57.806Z,1.80
2022-07-26T19:31:24.463Z,1.92
2022-07-26T19:33:51.095Z,2.60
2022-07-26T19:36:25.383Z,1.70
2022-07-26T19:38:53.065Z,1.67
2022-07-26T19:41:20.023Z,1.40
2022-07-26T19:43:46.815Z,1.90
2022-07-26T19:46:13.889Z,1.60
2022-07-26T19:48:40.843Z,2.50
2022-07-26T19:51:07.470Z,1.60
2022-07-26T19:53:34.192Z,1.95
2022-07-26T19:56:00.862Z,1.75
2022-07-26T19:58:29.182Z,1.80
2022-07-26T20:00:56.035Z,1.88
2022-07-26T20:03:22.741Z,1.52
2022-07-26T20:05:50.046Z,1.73
2022-07-26T20:08:16.964Z,2.13
2022-07-26T20:10:43.483Z,2.03
2022-07-26T20:13:10.045Z,2.08
2022-07-26T20:15:36.641Z,2.00
2022-07-26T20:18:04.597Z,1.80
2022-07-26T20:20:31.821Z,2.28
2022-07-26T20:22:58.623Z,2.10
2022-07-26T20:25:25.292Z,1.92
2022-07-26T20:27:51.845Z,1.92
2022-07-26T20:30:18.644Z,1.95
2022-07-26T20:32:45.223Z,2.00
2022-07-26T20:35:12.027Z,2.90
2022-07-26T20:37:38.941Z,2.20
2022-07-26T20:40:09.083Z,2.20
2022-07-26T20:42:36.334Z,2.55
2022-07-26T20:45:11.298Z,3.17
2022-07-26T20:47:42.943Z,2.47
2022-07-26T20:50:11.011Z,2.35
2022-07-26T20:52:37.614Z,2.60
2022-07-26T20:55:04.941Z,3.05
2022-07-26T20:57:31.529Z,2.63
2022-07-26T20:59:58.061Z,2.42
2022-07-26T21:02:24.776Z,2.33
2022-07-26T21:04:51.549Z,2.30
2022-07-26T21:07:18.511Z,2.38
2022-07-26T21:09:45.257Z,2.58
2022-07-26T21:12:11.837Z,2.50
2022-07-26T21:14:38.434Z,2.58
2022-07-26T21:17:10.983Z,2.40
2022-07-26T21:19:38.561Z,2.47
2022-07-26T21:22:05.156Z,2.30
2022-07-26T21:24:31.690Z,2.50
2022-07-26T21:26:58.272Z,2.20
2022-07-26T21:29:24.806Z,2.30
2022-07-26T21:31:51.430Z,2.55
2022-07-26T21:34:18.018Z,2.33
2022-07-26T21:36:44.889Z,2.40
2022-07-26T21:39:12.151Z,2.20
2022-07-26T21:41:39.396Z,2.00
2022-07-26T21:44:06.986Z,1.75
2022-07-26T21:46:33.707Z,1.73
2022-07-26T21:49:00.361Z,1.73
2022-07-26T21:51:26.992Z,2.00
2022-07-26T21:53:53.558Z,1.70
2022-07-26T21:56:20.120Z,1.80
2022-07-26T21:58:47.009Z,1.60
2022-07-26T22:01:14.134Z,1.67
2022-07-26T22:03:42.256Z,1.75
2022-07-26T22:06:09.871Z,1.80
2022-07-26T22:08:36.914Z,1.98
2022-07-26T22:11:03.943Z,1.83
2022-07-26T22:13:30.925Z,1.60
2022-07-26T22:15:57.682Z,1.80
2022-07-26T22:18:24.397Z,1.40
2022-07-26T22:20:51.035Z,1.42
2022-07-26T22:23:18.658Z,1.20
2022-07-26T22:25:45.813Z,1.20
2022-07-26T22:28:12.663Z,1.15
2022-07-26T22:30:45.796Z,1.00
2022-07-26T22:33:12.442Z,1.10
2022-07-26T22:35:39.074Z,1.10
2022-07-26T22:38:08.872Z,1.10
2022-07-26T22:40:36.752Z,1.02
2022-07-26T22:43:03.474Z,1.10
2022-07-26T22:45:30.622Z,1.00
2022-07-26T22:47:58.117Z,0.85
2022-07-26T22:50:25.016Z,0.90
2022-07-26T22:52:52.577Z,0.80
2022-07-26T22:55:19.685Z,1.00
2022-07-26T22:57:46.872Z,0.88
2022-07-26T23:00:15.989Z,1.05
2022-07-26T23:02:42.855Z,0.90
2022-07-26T23:05:10.498Z,0.77
2022-07-26T23:07:37.961Z,0.80
2022-07-26T23:10:06.962Z,0.90
2022-07-26T23:12:33.644Z,0.60
2022-07-26T23:15:00.195Z,0.70
2022-07-26T23:17:26.826Z,0.65
2022-07-26T23:19:53.322Z,0.60
2022-07-26T23:22:20.990Z,0.77
2022-07-26T23:24:47.538Z,0.73
2022-07-26T23:27:19.674Z,0.70
2022-07-26T23:29:49.036Z,0.70
2022-07-26T23:32:15.860Z,0.63
2022-07-26T23:34:42.485Z,0.50
2022-07-26T23:37:09.094Z,0.70
2022-07-26T23:39:35.857Z,0.80
2022-07-26T23:42:03.011Z,0.60
2022-07-26T23:44:30.647Z,0.50
2022-07-26T23:46:57.855Z,0.60
2022-07-26T23:49:24.543Z,0.68
2022-07-26T23:51:51.101Z,0.60
2022-07-26T23:54:17.771Z,0.75
2022-07-26T23:56:45.647Z,0.50
2022-07-26T23:59:13.428Z,0.50
